createdAt,value
2022-09-09T00:02:18.967Z,99957.34
2022-09-09T00:04:46.717Z,99956.50
2022-09-09T00:07:14.888Z,99957.34
2022-09-09T00:09:42.512Z,99951.88
2022-09-09T00:12:10.288Z,99949.97
2022-09-09T00:20:51.800Z,99961.59
2022-09-09T00:23:20.756Z,99961.34
2022-09-09T00:25:52.255Z,99958.63
2022-09-09T00:28:20.239Z,99951.47
2022-09-09T00:30:49.263Z,99961.34
2022-09-09T00:33:17.008Z,99960.53
2022-09-09T00:35:45.593Z,99964.09
2022-09-09T00:38:13.368Z,99957.78
2022-09-09T00:40:41.210Z,99955.88
2022-09-09T00:43:09.875Z,99953.16
2022-09-09T00:45:37.725Z,99954.22
2022-09-09T00:48:05.609Z,99954.84
2022-09-09T00:50:33.876Z,99956.94
2022-09-09T00:53:01.796Z,99956.94
2022-09-09T00:55:29.519Z,99955.03
2022-09-09T00:57:57.432Z,99956.72
2022-09-09T01:00:25.199Z,99944.09
2022-09-09T01:02:53.029Z,99950.66
2022-09-09T01:05:21.002Z,99957.78
2022-09-09T01:07:48.719Z,99956.13
2022-09-09T01:10:16.493Z,99953.97
2022-09-09T01:12:44.752Z,99955.03
2022-09-09T01:15:12.949Z,99946.84
2022-09-09T01:17:40.620Z,99956.72
2022-09-09T01:20:08.540Z,99961.34
2022-09-09T01:22:36.727Z,99958.63
2022-09-09T01:25:04.353Z,99956.13
2022-09-09T01:27:32.181Z,99956.94
2022-09-09T01:30:00.705Z,99950.66
2022-09-09T01:32:28.668Z,99949.78
2022-09-09T01:34:56.322Z,99955.25
2022-09-09T01:37:24.133Z,99949.78
2022-09-09T01:39:52.101Z,99948.09
2022-09-09T01:42:20.026Z,99947.03
2022-09-09T01:44:47.740Z,99943.47
2022-09-09T01:47:15.400Z,99945.16
2022-09-09T01:49:43.079Z,99940.72
2022-09-09T01:52:10.922Z,99948.09
2022-09-09T01:54:38.657Z,99945.38
2022-09-09T01:57:06.300Z,99945.38
2022-09-09T01:59:33.973Z,99937.16
2022-09-09T02:02:01.669Z,99948.94
2022-09-09T02:04:29.396Z,99947.03
2022-09-09T02:06:57.046Z,99942.63
2022-09-09T02:09:24.697Z,99938.22
2022-09-09T02:11:52.403Z,99946.22
2022-09-09T02:14:20.038Z,99948.09
2022-09-09T02:16:47.872Z,99942.63
2022-09-09T02:19:15.509Z,99944.53
2022-09-09T02:21:43.190Z,99944.75
2022-09-09T02:24:11.461Z,99946.44
2022-09-09T02:26:39.176Z,99955.69
2022-09-09T02:29:06.897Z,99952.94
2022-09-09T02:31:36.546Z,99958.41
2022-09-09T02:34:04.440Z,99963.88
2022-09-09T02:36:32.206Z,99963.06
2022-09-09T02:38:59.958Z,99959.25
2022-09-09T02:41:27.739Z,99952.94
2022-09-09T02:43:55.438Z,99958.41
2022-09-09T02:46:23.425Z,99951.28
2022-09-09T02:48:51.114Z,99954.84
2022-09-09T02:51:18.963Z,99959.47
2022-09-09T02:53:46.692Z,99955.69
2022-09-09T02:56:14.433Z,99950.22
2022-09-09T02:58:42.291Z,99954.84
2022-09-09T03:01:10.049Z,99954.00
2022-09-09T03:03:37.819Z,99951.28
2022-09-09T03:06:06.697Z,99959.47
2022-09-09T03:08:34.452Z,99962.22
2022-09-09T03:11:03.240Z,99963.06
2022-09-09T03:13:31.119Z,99958.66
2022-09-09T03:15:58.781Z,99958.66
2022-09-09T03:18:26.585Z,99959.47
2022-09-09T03:20:55.128Z,99955.91
2022-09-09T03:23:23.967Z,99960.53
2022-09-09T03:25:52.546Z,99956.75
2022-09-09T03:28:20.273Z,99957.59
2022-09-09T03:30:47.954Z,99954.00
2022-09-09T03:33:16.119Z,99958.41
2022-09-09T03:35:47.198Z,99959.47
2022-09-09T03:38:14.870Z,99964.13
2022-09-09T03:40:43.189Z,99964.13
2022-09-09T03:43:10.865Z,99946.84
2022-09-09T03:45:38.568Z,99949.59
2022-09-09T03:48:06.279Z,99949.59
2022-09-09T03:50:34.254Z,99950.66
2022-09-09T03:53:01.950Z,99942.44
2022-09-09T03:55:29.618Z,99948.53
2022-09-09T03:57:57.283Z,99946.00
2022-09-09T04:00:25.041Z,99948.53
2022-09-09T04:02:55.101Z,99948.75
2022-09-09T04:05:22.779Z,99945.19
2022-09-09T04:07:50.492Z,99943.50
2022-09-09T04:10:18.142Z,99947.91
2022-09-09T04:12:49.452Z,99947.91
2022-09-09T04:15:19.375Z,99956.13
2022-09-09T04:17:47.061Z,99948.13
2022-09-09T04:20:14.749Z,99946.84
2022-09-09T04:22:42.415Z,99950.66
2022-09-09T04:25:10.088Z,99956.94
2022-09-09T04:27:37.764Z,99959.69
2022-09-09T04:30:05.664Z,99954.00
2022-09-09T04:32:33.327Z,99946.84
2022-09-09T04:35:01.016Z,99959.25
2022-09-09T04:37:29.414Z,99962.00
2022-09-09T04:39:57.221Z,99961.16
2022-09-09T04:42:25.140Z,99960.31
2022-09-09T04:44:52.887Z,99963.88
2022-09-09T04:47:20.778Z,99960.31
2022-09-09T04:49:48.456Z,99962.84
2022-09-09T04:52:19.194Z,99961.16
2022-09-09T04:54:46.987Z,99953.78
2022-09-09T04:57:18.615Z,99955.69
2022-09-09T04:59:46.857Z,99963.88
2022-09-09T05:02:14.606Z,99963.88
2022-09-09T05:04:42.317Z,99966.63
2022-09-09T05:07:10.274Z,99972.94
2022-09-09T05:09:37.971Z,99971.06
2022-09-09T05:12:05.677Z,99967.47
2022-09-09T05:14:33.692Z,99975.66
2022-09-09T05:17:01.370Z,99974.63
2022-09-09T05:19:29.052Z,99973.81
2022-09-09T05:21:56.735Z,99972.09
2022-09-09T05:24:24.528Z,99972.09
2022-09-09T05:26:52.150Z,99980.31
2022-09-09T05:29:20.386Z,99976.53
2022-09-09T05:31:48.188Z,99979.28
2022-09-09T05:34:15.982Z,99986.63
2022-09-09T05:36:43.719Z,99985.56
2022-09-09T05:39:13.034Z,99989.97
2022-09-09T05:41:41.062Z,99980.09
2022-09-09T05:44:08.859Z,99982.84
2022-09-09T05:46:36.572Z,99981.13
2022-09-09T05:49:04.533Z,99985.56
2022-09-09T05:51:32.278Z,99985.34
2022-09-09T05:54:00.629Z,99989.78
2022-09-09T05:56:28.359Z,99980.75
2022-09-09T05:58:56.040Z,99987.03
2022-09-09T06:01:23.773Z,99987.69
2022-09-09T06:03:51.404Z,99978.84
2022-09-09T06:06:19.318Z,99985.97
2022-09-09T06:08:47.011Z,99987.44
2022-09-09T06:11:14.704Z,99985.78
2022-09-09T06:13:42.359Z,99984.72
2022-09-09T06:16:10.222Z,99983.88
2022-09-09T06:18:37.989Z,99984.72
2022-09-09T06:21:05.739Z,99991.00
2022-09-09T06:23:33.457Z,99984.50
2022-09-09T06:26:01.431Z,99984.50
2022-09-09T06:28:29.692Z,99981.13
2022-09-09T06:30:57.422Z,99981.13
2022-09-09T06:33:25.192Z,99980.06
2022-09-09T06:35:53.033Z,99982.59
2022-09-09T06:38:20.816Z,99987.25
2022-09-09T06:40:48.485Z,99991.66
2022-09-09T06:43:16.267Z,99987.88
2022-09-09T06:45:43.991Z,99991.66
2022-09-09T06:48:11.640Z,99994.38
2022-09-09T06:50:39.318Z,99994.81
2022-09-09T06:53:07.070Z,99991.88
2022-09-09T06:55:34.820Z,99995.44
2022-09-09T06:58:03.657Z,99994.63
2022-09-09T07:00:31.412Z,99984.50
2022-09-09T07:02:59.185Z,99987.88
2022-09-09T07:05:27.053Z,99991.66
2022-09-09T07:07:54.758Z,99997.97
2022-09-09T07:10:22.463Z,100004.50
2022-09-09T07:12:50.302Z,100009.97
2022-09-09T07:15:19.701Z,100004.28
2022-09-09T07:17:47.656Z,99992.28
2022-09-09T07:20:15.647Z,99990.63
2022-09-09T07:22:43.361Z,99995.84
2022-09-09T07:25:11.039Z,99994.81
2022-09-09T07:27:38.713Z,99998.59
2022-09-09T07:30:06.723Z,99990.63
2022-09-09T07:32:34.378Z,99990.63
2022-09-09T07:35:02.126Z,99991.44
2022-09-09T07:37:29.814Z,99987.00
2022-09-09T07:39:57.782Z,99990.63
2022-09-09T07:42:25.538Z,99996.91
2022-09-09T07:44:55.901Z,99997.75
2022-09-09T07:47:25.802Z,100003.22
2022-09-09T07:49:53.504Z,100013.34
2022-09-09T07:52:26.002Z,100019.66
2022-09-09T07:54:54.440Z,100007.88
2022-09-09T07:57:22.490Z,100004.06
2022-09-09T07:59:50.434Z,100004.91
2022-09-09T08:02:18.114Z,100016.47
2022-09-09T08:04:46.482Z,100025.53
2022-09-09T08:07:14.820Z,100025.53
2022-09-09T08:09:42.518Z,100021.53
2022-09-09T08:12:10.208Z,100014.16
2022-09-09T08:14:37.944Z,100015.00
2022-09-09T08:17:05.620Z,100022.16
2022-09-09T08:19:35.119Z,100025.53
2022-09-09T08:22:03.734Z,100017.06
2022-09-09T08:24:31.412Z,100017.94
2022-09-09T08:26:59.107Z,100015.22
2022-09-09T08:29:26.829Z,100020.69
2022-09-09T08:31:55.592Z,100015.81
2022-09-09T08:34:23.390Z,100017.72
2022-09-09T08:36:51.122Z,100013.31
2022-09-09T08:39:18.820Z,100019.22
2022-09-09T08:41:46.665Z,100013.75
2022-09-09T08:44:15.755Z,100012.03
2022-09-09T08:46:43.818Z,100028.69
2022-09-09T08:49:11.730Z,100024.06
2022-09-09T08:51:39.421Z,100019.41
2022-09-09T08:54:07.092Z,100025.72
2022-09-09T08:56:35.132Z,100032.25
2022-09-09T08:59:02.862Z,100018.34
2022-09-09T09:01:30.548Z,100025.72
2022-09-09T09:03:58.331Z,100027.41
2022-09-09T09:06:26.739Z,100023.81
2022-09-09T09:08:54.460Z,100017.31
2022-09-09T09:11:23.416Z,100031.19
2022-09-09T09:13:51.312Z,100019.41
2022-09-09T09:16:19.030Z,100015.84
2022-09-09T09:18:46.751Z,100015.00
2022-09-09T09:21:14.581Z,100014.38
2022-09-09T09:23:42.318Z,100022.59
2022-09-09T09:26:10.014Z,100021.75
2022-09-09T09:28:38.198Z,100021.53
2022-09-09T09:31:06.024Z,100011.63
2022-09-09T09:33:33.723Z,100020.06
2022-09-09T09:36:01.739Z,100009.97
2022-09-09T09:41:19.423Z,100013.53
2022-09-09T09:43:47.474Z,100020.69
2022-09-09T09:46:18.070Z,100009.97
2022-09-09T09:48:47.313Z,100011.63
2022-09-09T09:51:16.984Z,100016.03
2022-09-09T09:53:44.986Z,100005.72
2022-09-09T09:56:12.642Z,100008.47
2022-09-09T09:58:40.374Z,100012.88
2022-09-09T10:01:08.132Z,100006.56
2022-09-09T10:03:38.571Z,100013.31
2022-09-09T10:06:06.285Z,100013.09
2022-09-09T10:08:34.045Z,100011.84
2022-09-09T10:11:01.775Z,100012.47
2022-09-09T10:13:29.478Z,100013.94
2022-09-09T10:15:57.189Z,100013.94
2022-09-09T10:18:24.945Z,100014.97
2022-09-09T10:20:52.705Z,100025.09
2022-09-09T10:23:20.390Z,100015.41
2022-09-09T10:25:48.509Z,100016.25
2022-09-09T10:28:17.553Z,100012.47
2022-09-09T10:30:45.305Z,100010.34
2022-09-09T10:33:14.219Z,100014.13
2022-09-09T10:35:41.979Z,100006.75
2022-09-09T10:38:10.147Z,100005.09
2022-09-09T10:40:37.877Z,100001.53
2022-09-09T10:43:06.321Z,99998.78
2022-09-09T10:45:35.715Z,100006.13
2022-09-09T10:48:03.372Z,100000.06
2022-09-09T10:50:50.381Z,99998.97
2022-09-09T10:53:18.734Z,100008.66
2022-09-09T10:55:46.499Z,100005.94
2022-09-09T10:58:14.200Z,100004.25
2022-09-09T11:00:41.869Z,99994.34
2022-09-09T11:03:09.770Z,99998.16
2022-09-09T11:05:37.563Z,99998.16
2022-09-09T11:08:05.223Z,99998.16
2022-09-09T11:10:33.452Z,99992.69
2022-09-09T11:13:01.449Z,99999.19
2022-09-09T11:15:29.139Z,99997.53
2022-09-09T11:17:57.670Z,99998.16
2022-09-09T11:20:26.329Z,99992.03
2022-09-09T11:22:54.008Z,99992.03
2022-09-09T11:25:22.265Z,99981.09
2022-09-09T11:27:49.994Z,99981.94
2022-09-09T11:30:32.294Z,99972.69
2022-09-09T11:33:05.417Z,99971.81
2022-09-09T11:35:33.736Z,99972.88
2022-09-09T11:38:01.389Z,99967.81
2022-09-09T11:40:29.259Z,99976.00
2022-09-09T11:42:58.400Z,99968.88
2022-09-09T11:45:26.751Z,99968.88
2022-09-09T11:47:54.675Z,99969.91
2022-09-09T11:50:22.360Z,99954.56
2022-09-09T11:52:50.513Z,99964.66
2022-09-09T11:55:18.262Z,99964.88
2022-09-09T11:57:49.492Z,99967.81
2022-09-09T12:00:17.399Z,99966.16
2022-09-09T12:02:45.890Z,99969.09
2022-09-09T12:05:15.201Z,99973.72
2022-09-09T12:07:43.555Z,99967.41
2022-09-09T12:10:11.762Z,99980.03
2022-09-09T12:12:43.751Z,99966.59
2022-09-09T12:15:12.995Z,99967.22
2022-09-09T12:17:40.919Z,99965.50
2022-09-09T12:20:09.535Z,99958.38
2022-09-09T12:22:37.187Z,99958.56
2022-09-09T12:25:04.898Z,99953.72
2022-09-09T12:27:32.555Z,99955.63
2022-09-09T12:30:00.204Z,99952.91
2022-09-09T12:32:29.095Z,99944.69
2022-09-09T12:34:57.531Z,99940.03
2022-09-09T12:37:25.196Z,99933.75
2022-09-09T12:39:52.946Z,99940.03
2022-09-09T12:42:20.658Z,99934.56
2022-09-09T12:44:48.319Z,99931.84
2022-09-09T12:47:15.982Z,99941.72
2022-09-09T12:49:44.733Z,99939.22
2022-09-09T12:52:12.431Z,99934.56
2022-09-09T12:54:40.394Z,99930.78
2022-09-09T12:57:08.111Z,99933.31
2022-09-09T12:59:36.133Z,99928.91
2022-09-09T13:02:03.871Z,99920.69
2022-09-09T13:04:31.691Z,99926.56
2022-09-09T13:06:59.375Z,99926.56
2022-09-09T13:09:27.395Z,99921.09
2022-09-09T13:11:57.162Z,99919.41
2022-09-09T13:14:26.887Z,99924.03
2022-09-09T13:16:54.607Z,99917.72
2022-09-09T13:19:22.792Z,99911.81
2022-09-09T13:21:50.460Z,99916.69
2022-09-09T13:24:18.154Z,99913.06
2022-09-09T13:26:45.923Z,99916.88
2022-09-09T13:29:13.611Z,99918.78
2022-09-09T13:31:41.290Z,99911.41
2022-09-09T13:34:08.991Z,99919.41
2022-09-09T13:36:36.643Z,99916.69
2022-09-09T13:39:04.391Z,99918.97
2022-09-09T13:41:32.490Z,99915.41
2022-09-09T13:44:00.138Z,99917.28
2022-09-09T13:46:28.642Z,99914.53
2022-09-09T13:48:56.327Z,99908.03
2022-09-09T13:51:24.058Z,99917.28
2022-09-09T13:53:53.320Z,99916.44
2022-09-09T13:56:21.029Z,99924.66
2022-09-09T13:58:48.701Z,99925.91
2022-09-09T14:01:16.433Z,99932.22
2022-09-09T14:03:44.574Z,99940.44
2022-09-09T14:06:12.262Z,99946.78
2022-09-09T14:08:41.187Z,99948.66
2022-09-09T14:11:08.999Z,99952.25
2022-09-09T14:13:38.478Z,99950.56
2022-09-09T14:16:06.245Z,99945.09
2022-09-09T14:18:35.097Z,99949.53
2022-09-09T14:21:03.922Z,99952.25
2022-09-09T14:23:31.737Z,99946.78
2022-09-09T14:25:59.392Z,99945.09
2022-09-09T14:28:53.911Z,99940.44
2022-09-09T14:31:15.715Z,99934.97
2022-09-09T14:33:43.478Z,99932.22
2022-09-09T14:36:11.149Z,99929.28
2022-09-09T14:38:40.712Z,99933.94
2022-09-09T14:41:08.746Z,99924.88
2022-09-09T14:43:36.447Z,99921.09
2022-09-09T14:46:04.207Z,99916.44
2022-09-09T14:48:31.913Z,99920.88
2022-09-09T14:50:59.568Z,99910.97
2022-09-09T14:53:27.649Z,99908.47
2022-09-09T14:55:55.301Z,99901.28
2022-09-09T14:58:22.946Z,99905.94
2022-09-09T15:00:50.614Z,99909.06
2022-09-09T15:03:18.663Z,99905.28
2022-09-09T15:05:47.090Z,99905.06
2022-09-09T15:08:14.892Z,99906.97
2022-09-09T15:10:45.942Z,99915.16
2022-09-09T15:13:13.784Z,99908.22
2022-09-09T15:15:42.625Z,99916.00
2022-09-09T15:18:10.361Z,99919.59
2022-09-09T15:20:40.252Z,99916.00
2022-09-09T15:23:10.049Z,99917.91
2022-09-09T15:25:38.050Z,99920.63
2022-09-09T15:28:05.728Z,99922.09
2022-09-09T15:30:33.736Z,99922.34
2022-09-09T15:33:01.587Z,99917.69
2022-09-09T15:35:29.259Z,99922.34
2022-09-09T15:37:58.266Z,99917.69
2022-09-09T15:40:25.901Z,99919.59
2022-09-09T15:42:53.914Z,99927.81
2022-09-09T15:45:22.175Z,99920.63
2022-09-09T15:47:50.157Z,99914.13
2022-09-09T15:50:18.267Z,99920.63
2022-09-09T15:52:46.162Z,99926.13
2022-09-09T15:57:41.809Z,99918.53
2022-09-09T16:00:09.957Z,99921.28
2022-09-09T16:02:38.072Z,99923.19
2022-09-09T16:05:06.003Z,99922.34
2022-09-09T16:07:35.126Z,99917.69
2022-09-09T16:10:02.781Z,99916.22
2022-09-09T16:12:30.480Z,99920.63
2022-09-09T16:14:58.166Z,99921.47
2022-09-09T16:17:25.817Z,99915.41
2022-09-09T16:19:55.396Z,99910.13
2022-09-09T16:22:23.116Z,99911.81
2022-09-09T16:24:50.970Z,99916.44
2022-09-09T16:27:19.575Z,99916.22
2022-09-09T16:29:47.236Z,99917.28
2022-09-09T16:32:15.727Z,99918.13
2022-09-09T16:34:44.057Z,99921.72
2022-09-09T16:37:12.310Z,99917.28
2022-09-09T16:39:40.025Z,99915.59
2022-09-09T16:42:07.794Z,99914.78
2022-09-09T16:44:35.489Z,99911.19
2022-09-09T16:47:03.183Z,99910.34
2022-09-09T16:49:30.921Z,99920.44
2022-09-09T16:51:58.680Z,99915.59
2022-09-09T16:54:28.010Z,99916.69
2022-09-09T16:56:55.751Z,99913.94
2022-09-09T16:59:23.724Z,99924.88
2022-09-09T17:01:51.621Z,99929.50
2022-09-09T17:04:21.708Z,99927.63
2022-09-09T17:06:50.305Z,99934.13
2022-09-09T17:09:18.224Z,99937.72
2022-09-09T17:11:46.319Z,99934.97
2022-09-09T17:14:14.236Z,99937.72
2022-09-09T17:16:42.260Z,99942.34
2022-09-09T17:19:10.655Z,99937.94
2022-09-09T17:21:49.661Z,99955.41
2022-09-09T17:24:27.151Z,99944.44
2022-09-09T17:26:55.445Z,99947.19
2022-09-09T17:29:23.369Z,99947.41
2022-09-09T17:31:51.235Z,99947.41
2022-09-09T17:34:18.943Z,99951.00
2022-09-09T17:36:46.660Z,99956.47
2022-09-09T17:39:14.341Z,99956.47
2022-09-09T17:41:42.078Z,99952.06
2022-09-09T17:44:10.673Z,99953.94
2022-09-09T17:46:41.436Z,99958.56
2022-09-09T17:49:09.740Z,99959.19
2022-09-09T17:51:37.399Z,99960.28
2022-09-09T17:54:05.095Z,99965.50
2022-09-09T17:56:32.938Z,99960.28
2022-09-09T17:59:00.648Z,99964.03
2022-09-09T18:01:28.971Z,99963.00
2022-09-09T18:03:57.483Z,99956.91
2022-09-09T18:06:25.191Z,99962.16
2022-09-09T18:08:53.014Z,99961.31
2022-09-09T18:11:20.705Z,99962.38
2022-09-09T18:13:48.839Z,99968.91
2022-09-09T18:16:17.892Z,99973.31
2022-09-09T18:18:45.756Z,99975.00
2022-09-09T18:21:13.525Z,99982.38
2022-09-09T18:23:41.180Z,99986.19
2022-09-09T18:26:10.340Z,99987.22
2022-09-09T18:28:38.183Z,99990.19
2022-09-09T18:31:06.034Z,99982.59
2022-09-09T18:33:33.680Z,99985.53
2022-09-09T18:36:01.773Z,99992.69
2022-09-09T18:38:29.577Z,99988.28
2022-09-09T18:40:58.702Z,99998.38
2022-09-09T18:43:26.379Z,99989.34
2022-09-09T18:45:54.065Z,99990.19
2022-09-09T18:48:21.872Z,99995.66
2022-09-09T18:50:49.574Z,99989.53
2022-09-09T18:53:17.211Z,100000.28
2022-09-09T18:55:44.999Z,100006.59
2022-09-09T18:58:13.991Z,100009.34
2022-09-09T19:00:41.777Z,100005.75
2022-09-09T19:03:09.529Z,100004.91
2022-09-09T19:05:37.413Z,100018.38
2022-09-09T19:08:05.087Z,100020.28
2022-09-09T19:10:32.883Z,100014.19
2022-09-09T19:13:01.201Z,100022.38
2022-09-09T19:15:29.748Z,100024.28
2022-09-09T19:17:57.603Z,100039.63
2022-09-09T19:20:25.251Z,100036.91
2022-09-09T19:22:53.087Z,100027.66
2022-09-09T19:25:20.904Z,100039.63
2022-09-09T19:27:48.682Z,100039.88
2022-09-09T19:30:16.428Z,100045.34
2022-09-09T19:32:53.290Z,100034.41
2022-09-09T19:35:21.678Z,100035.44
2022-09-09T19:37:49.351Z,100028.91
2022-09-09T19:40:17.545Z,100045.34
2022-09-09T19:42:45.215Z,100035.44
2022-09-09T19:45:12.871Z,100039.88
2022-09-09T19:47:40.554Z,100033.75
2022-09-09T19:50:08.551Z,100044.72
2022-09-09T19:52:36.285Z,100048.09
2022-09-09T19:55:04.128Z,100054.38
2022-09-09T19:57:31.774Z,100047.22
2022-09-09T20:00:00.885Z,100056.28
2022-09-09T20:02:28.860Z,100050.81
2022-09-09T20:04:56.817Z,100054.38
2022-09-09T20:07:24.488Z,100055.22
2022-09-09T20:09:54.866Z,100056.28
2022-09-09T20:12:22.557Z,100053.56
2022-09-09T20:14:50.518Z,100051.00
2022-09-09T20:17:19.006Z,100054.59
2022-09-09T20:19:46.751Z,100056.28
2022-09-09T20:22:14.680Z,100052.91
2022-09-09T20:24:44.105Z,100055.66
2022-09-09T20:27:11.811Z,100065.53
2022-09-09T20:29:39.593Z,100061.13
2022-09-09T20:32:07.542Z,100068.50
2022-09-09T20:34:35.200Z,100073.09
2022-09-09T20:37:03.050Z,100062.78
2022-09-09T20:39:30.754Z,100063.88
2022-09-09T20:41:58.491Z,100062.16
2022-09-09T20:44:26.595Z,100068.69
2022-09-09T20:46:55.526Z,100070.59
2022-09-09T20:49:24.224Z,100074.16
2022-09-09T20:51:51.999Z,100073.09
2022-09-09T20:54:19.721Z,100068.91
2022-09-09T20:56:47.829Z,100071.44
2022-09-09T20:59:15.773Z,100069.75
2022-09-09T21:01:43.985Z,100063.22
2022-09-09T21:04:11.961Z,100070.38
2022-09-09T21:06:39.624Z,100065.97
2022-09-09T21:09:07.349Z,100065.97
2022-09-09T21:11:35.451Z,100075.25
2022-09-09T21:14:03.270Z,100056.69
2022-09-09T21:16:31.528Z,100068.06
2022-09-09T21:18:59.981Z,100058.81
2022-09-09T21:21:27.739Z,100065.13
2022-09-09T21:23:55.446Z,100065.97
2022-09-09T21:26:23.361Z,100060.69
2022-09-09T21:28:51.031Z,100075.25
2022-09-09T21:31:26.982Z,100066.38
2022-09-09T21:33:55.044Z,100066.59
2022-09-09T21:36:23.401Z,100078.16
2022-09-09T21:38:51.269Z,100074.59
2022-09-09T21:41:19.232Z,100071.88
2022-09-09T21:43:46.942Z,100072.69
2022-09-09T21:46:14.786Z,100074.59
2022-09-09T21:48:42.604Z,100068.06
2022-09-09T21:51:10.482Z,100064.50
2022-09-09T21:53:38.632Z,100070.78
2022-09-09T21:56:07.212Z,100065.31
2022-09-09T21:58:42.778Z,100060.91
2022-09-09T22:01:10.494Z,100066.38
2022-09-09T22:03:39.065Z,100062.59
2022-09-09T22:06:06.993Z,100062.59
2022-09-09T22:08:34.700Z,100063.44
2022-09-09T22:11:02.365Z,100057.94
2022-09-09T22:13:30.280Z,100064.28
2022-09-09T22:15:58.345Z,100055.44
2022-09-09T22:18:26.090Z,100055.44
2022-09-09T22:20:53.782Z,100057.34
2022-09-09T22:23:21.850Z,100054.63
2022-09-09T22:25:49.503Z,100049.97
2022-09-09T22:28:17.135Z,100050.81
2022-09-09T22:30:44.918Z,100046.59
2022-09-09T22:33:12.580Z,100049.34
2022-09-09T22:35:42.399Z,100060.09
2022-09-09T22:38:10.303Z,100063.03
2022-09-09T22:40:37.974Z,100063.84
2022-09-09T22:43:05.739Z,100063.84
2022-09-09T22:45:33.887Z,100068.28
2022-09-09T22:48:01.516Z,100070.16
2022-09-09T22:50:29.221Z,100067.44
2022-09-09T22:52:57.403Z,100073.13
2022-09-09T22:55:26.039Z,100067.66
2022-09-09T22:57:53.999Z,100068.50
2022-09-09T23:00:21.827Z,100066.59
2022-09-09T23:02:50.182Z,100072.28
2022-09-09T23:05:20.007Z,100072.28
2022-09-09T23:07:47.774Z,100072.28
2022-09-09T23:10:15.438Z,100073.97
2022-09-09T23:12:44.541Z,100067.66
2022-09-09T23:15:12.416Z,100064.91
2022-09-09T23:17:40.195Z,100059.66
2022-09-09T23:20:08.346Z,100061.34
2022-09-09T23:22:36.549Z,100064.28
2022-09-09T23:25:04.158Z,100062.38
2022-09-09T23:27:31.839Z,100066.81
2022-09-09T23:29:59.651Z,100060.72
2022-09-09T23:32:27.616Z,100068.09
2022-09-09T23:34:55.310Z,100058.81
2022-09-09T23:37:23.134Z,100054.19
2022-09-09T23:39:50.925Z,100054.19
2022-09-09T23:42:18.645Z,100054.19
2022-09-09T23:44:47.359Z,100047.88
2022-09-09T23:47:15.050Z,100043.47
2022-09-09T23:49:42.766Z,100051.03
2022-09-09T23:52:10.427Z,100052.06
2022-09-09T23:54:38.573Z,100051.22
2022-09-09T23:57:06.260Z,100053.34
2022-09-09T23:59:35.255Z,100057.78
